createdAt,value
2023-05-08T00:00:35.999Z,101960.31
2023-05-08T00:03:38.503Z,101952.81
2023-05-08T00:06:41.012Z,101953.25
2023-05-08T00:09:43.473Z,101949.06
2023-05-08T00:12:45.957Z,101958.25
2023-05-08T00:15:48.323Z,101966.16
2023-05-08T00:18:50.730Z,101951.97
2023-05-08T00:21:53.260Z,101955.31
2023-05-08T00:24:55.701Z,101962.19
2023-05-08T00:27:58.582Z,101966.78
2023-05-08T00:31:02.414Z,101959.28
2023-05-08T00:34:05.098Z,101961.94
2023-05-08T00:37:07.486Z,101968.97
2023-05-08T00:40:11.758Z,101969.34
2023-05-08T00:43:14.422Z,101977.69
2023-05-08T00:46:17.851Z,101966.47
2023-05-08T00:49:20.458Z,101975.66
2023-05-08T00:52:23.573Z,101980.44
2023-05-08T00:55:25.926Z,101974.81
2023-05-08T00:58:30.408Z,101982.06
2023-05-08T01:01:33.595Z,101986.38
2023-05-08T01:04:36.127Z,101981.13
2023-05-08T01:07:39.101Z,101988.00
2023-05-08T01:10:59.763Z,101995.53
2023-05-08T01:14:19.963Z,101993.91
2023-05-08T01:17:33.391Z,102006.34
2023-05-08T01:20:50.349Z,102005.47
2023-05-08T01:24:11.248Z,102001.53
2023-05-08T01:27:58.305Z,102010.88
2023-05-08T01:31:08.870Z,102011.72
2023-05-08T01:34:22.608Z,102025.16
2023-05-08T01:37:31.232Z,102016.78
2023-05-08T01:40:53.904Z,102017.63
2023-05-08T01:44:11.770Z,102025.91
2023-05-08T01:47:16.475Z,102019.41
2023-05-08T01:50:26.773Z,102023.56
2023-05-08T01:53:38.442Z,102032.69
2023-05-08T01:56:44.378Z,102028.47
2023-05-08T01:59:47.570Z,102033.03
2023-05-08T02:02:51.532Z,102032.22
2023-05-08T02:05:56.722Z,102038.38
2023-05-08T02:08:59.840Z,102041.94
2023-05-08T02:12:03.409Z,102043.75
2023-05-08T02:15:06.854Z,102041.44
2023-05-08T02:18:10.852Z,102040.97
2023-05-08T02:21:13.800Z,102048.06
2023-05-08T02:24:16.909Z,102040.28
2023-05-08T02:27:21.508Z,102046.06
2023-05-08T02:30:26.339Z,102047.72
2023-05-08T02:33:29.836Z,102048.72
2023-05-08T02:36:33.935Z,102045.94
2023-05-08T02:39:37.391Z,102045.47
2023-05-08T02:42:39.856Z,102050.72
2023-05-08T02:45:49.378Z,102050.22
2023-05-08T02:49:05.784Z,102052.25
2023-05-08T02:52:18.245Z,102051.69
2023-05-08T02:55:20.592Z,102055.47
2023-05-08T02:58:32.171Z,102042.09
2023-05-08T03:01:45.099Z,102057.81
2023-05-08T03:05:14.644Z,102059.31
2023-05-08T03:08:20.997Z,102058.78
2023-05-08T03:11:25.391Z,102065.44
2023-05-08T03:14:29.418Z,102054.59
2023-05-08T03:17:33.694Z,102062.69
2023-05-08T03:20:39.944Z,102062.66
2023-05-08T03:23:43.658Z,102065.97
2023-05-08T03:26:46.512Z,102056.38
2023-05-08T03:29:52.365Z,102071.13
2023-05-08T03:32:55.976Z,102062.00
2023-05-08T03:35:58.526Z,102061.81
2023-05-08T03:39:01.479Z,102055.97
2023-05-08T03:42:04.016Z,102055.38
2023-05-08T03:45:07.304Z,102064.31
2023-05-08T03:48:10.290Z,102063.81
2023-05-08T03:51:13.565Z,102068.59
2023-05-08T03:54:16.166Z,102068.50
2023-05-08T03:57:18.598Z,102066.00
2023-05-08T04:00:37.637Z,102079.72
2023-05-08T04:04:06.190Z,102079.41
2023-05-08T04:07:18.530Z,102068.66
2023-05-08T04:10:39.149Z,102079.16
2023-05-08T04:13:46.794Z,102076.63
2023-05-08T04:16:52.084Z,102081.19
2023-05-08T04:20:00.806Z,102086.44
2023-05-08T04:23:04.644Z,102093.66
2023-05-08T04:26:08.367Z,102089.69
2023-05-08T04:29:11.531Z,102088.19
2023-05-08T04:32:14.517Z,102105.25
2023-05-08T04:35:17.250Z,102102.50
2023-05-08T04:38:20.864Z,102110.78
2023-05-08T04:41:23.324Z,102105.44
2023-05-08T04:44:26.710Z,102110.41
2023-05-08T04:47:29.694Z,102117.28
2023-05-08T04:50:32.118Z,102106.81
2023-05-08T04:53:34.744Z,102112.16
2023-05-08T04:56:37.278Z,102120.06
2023-05-08T04:59:40.173Z,102130.75
2023-05-08T05:02:42.627Z,102126.63
2023-05-08T05:05:46.047Z,102117.75
2023-05-08T05:08:48.757Z,102135.47
2023-05-08T05:11:51.427Z,102134.00
2023-05-08T05:14:54.389Z,102130.75
2023-05-08T05:17:57.013Z,102129.66
2023-05-08T05:20:59.528Z,102135.50
2023-05-08T05:24:05.979Z,102136.13
2023-05-08T05:27:08.380Z,102139.34
2023-05-08T05:30:11.358Z,102144.63
2023-05-08T05:33:14.452Z,102147.75
2023-05-08T05:36:17.041Z,102147.09
2023-05-08T05:39:19.895Z,102142.00
2023-05-08T05:42:22.492Z,102150.00
2023-05-08T05:45:25.384Z,102138.81
2023-05-08T05:48:27.838Z,102153.38
2023-05-08T05:51:30.463Z,102160.44
2023-05-08T05:54:33.043Z,102153.16
2023-05-08T05:57:35.556Z,102155.63
2023-05-08T06:00:38.179Z,102159.03
2023-05-08T06:03:40.713Z,102157.81
2023-05-08T06:06:43.287Z,102161.19
2023-05-08T06:09:45.992Z,102155.66
2023-05-08T06:12:48.582Z,102167.34
2023-05-08T06:15:51.797Z,102160.97
2023-05-08T06:18:54.287Z,102170.53
2023-05-08T06:21:56.790Z,102168.66
2023-05-08T06:24:59.226Z,102170.53
2023-05-08T06:28:01.697Z,102175.59
2023-05-08T06:31:04.066Z,102170.63
2023-05-08T06:34:06.486Z,102173.56
2023-05-08T06:37:08.984Z,102176.34
2023-05-08T06:40:13.014Z,102172.63
2023-05-08T06:43:15.641Z,102152.94
2023-05-08T06:46:18.212Z,102162.84
2023-05-08T06:49:20.950Z,102158.00
2023-05-08T06:52:25.733Z,102163.09
2023-05-08T06:55:28.294Z,102162.28
2023-05-08T06:58:32.296Z,102165.91
2023-05-08T07:01:34.660Z,102171.44
2023-05-08T07:04:37.745Z,102168.38
2023-05-08T07:07:40.237Z,102171.09
2023-05-08T07:10:42.569Z,102168.00
2023-05-08T07:13:48.214Z,102165.38
2023-05-08T07:16:50.619Z,102166.19
2023-05-08T07:19:53.143Z,102166.44
2023-05-08T07:22:55.434Z,102167.25
2023-05-08T07:25:58.162Z,102169.66
2023-05-08T07:29:01.853Z,102173.75
2023-05-08T07:32:08.300Z,102169.16
2023-05-08T07:35:12.952Z,102175.59
2023-05-08T07:38:15.639Z,102172.66
2023-05-08T07:41:18.049Z,102152.81
2023-05-08T07:44:20.419Z,102169.16
2023-05-08T07:47:23.058Z,102171.03
2023-05-08T07:50:26.645Z,102167.53
2023-05-08T07:53:28.923Z,102171.75
2023-05-08T07:56:31.392Z,102167.81
2023-05-08T07:59:33.811Z,102165.16
2023-05-08T08:02:36.409Z,102152.75
2023-05-08T08:05:39.823Z,102157.94
2023-05-08T08:08:42.247Z,102161.25
2023-05-08T08:11:44.548Z,102155.75
2023-05-08T08:14:47.171Z,102154.75
2023-05-08T08:17:49.732Z,102158.47
2023-05-08T08:20:52.217Z,102148.44
2023-05-08T08:23:54.586Z,102147.94
2023-05-08T08:26:56.907Z,102151.28
2023-05-08T08:30:12.223Z,102133.97
2023-05-08T08:33:19.261Z,102146.00
2023-05-08T08:36:22.074Z,102143.50
2023-05-08T08:39:24.472Z,102152.22
2023-05-08T08:42:26.904Z,102150.28
2023-05-08T08:45:29.291Z,102132.34
2023-05-08T08:48:32.121Z,102148.56
2023-05-08T08:51:44.452Z,102147.97
2023-05-08T08:54:47.642Z,102150.19
2023-05-08T08:58:01.419Z,102146.50
2023-05-08T09:01:04.106Z,102148.31
2023-05-08T09:04:06.782Z,102139.84
2023-05-08T09:07:09.829Z,102139.97
2023-05-08T09:10:15.623Z,102133.63
2023-05-08T09:13:19.911Z,102140.72
2023-05-08T09:16:23.733Z,102137.09
2023-05-08T09:19:28.960Z,102141.50
2023-05-08T09:22:32.187Z,102130.63
2023-05-08T09:25:44.234Z,102129.59
2023-05-08T09:28:46.520Z,102125.97
2023-05-08T09:31:50.909Z,102132.59
2023-05-08T09:34:53.799Z,102135.34
2023-05-08T09:37:57.412Z,102132.59
2023-05-08T09:41:17.497Z,102126.09
2023-05-08T09:44:19.860Z,102129.22
2023-05-08T09:47:24.421Z,102130.38
2023-05-08T09:50:27.933Z,102131.16
2023-05-08T09:53:33.427Z,102122.34
2023-05-08T09:56:39.057Z,102123.97
2023-05-08T09:59:41.450Z,102119.34
2023-05-08T10:02:55.583Z,102124.06
2023-05-08T10:06:14.529Z,102118.00
2023-05-08T10:09:16.945Z,102115.47
2023-05-08T10:12:19.418Z,102112.97
2023-05-08T10:15:29.031Z,102114.91
2023-05-08T10:18:34.948Z,102114.38
2023-05-08T10:21:37.887Z,102096.69
2023-05-08T10:24:42.217Z,102108.75
2023-05-08T10:27:55.420Z,102098.84
2023-05-08T10:31:05.676Z,102097.63
2023-05-08T10:34:09.088Z,102106.97
2023-05-08T10:37:11.607Z,102103.38
2023-05-08T10:40:16.119Z,102096.66
2023-05-08T10:43:20.084Z,102085.28
2023-05-08T10:46:31.128Z,102092.63
2023-05-08T10:49:58.936Z,102084.38
2023-05-08T10:53:10.160Z,102085.53
2023-05-08T10:56:12.655Z,102071.44
2023-05-08T10:59:21.439Z,102091.03
2023-05-08T11:02:33.038Z,102081.00
2023-05-08T11:05:47.043Z,102089.22
2023-05-08T11:08:52.061Z,102047.06
2023-05-08T11:12:09.394Z,102085.56
2023-05-08T11:15:12.083Z,102070.25
2023-05-08T11:18:17.672Z,102064.28
2023-05-08T11:21:22.480Z,102082.72
2023-05-08T11:24:36.684Z,102074.78
2023-05-08T11:27:40.268Z,102066.34
2023-05-08T11:30:45.051Z,102065.47
2023-05-08T11:33:47.577Z,102071.63
2023-05-08T11:37:17.415Z,102068.31
2023-05-08T11:40:48.634Z,102066.59
2023-05-08T11:43:59.911Z,102053.91
2023-05-08T11:47:04.399Z,102058.81
2023-05-08T11:50:07.288Z,102048.72
2023-05-08T11:53:09.550Z,102051.91
2023-05-08T11:56:11.832Z,102046.78
2023-05-08T11:59:14.277Z,102032.22
2023-05-08T12:02:16.895Z,102028.53
2023-05-08T12:05:27.798Z,102039.22
2023-05-08T12:08:30.382Z,102032.19
2023-05-08T12:11:32.657Z,102031.97
2023-05-08T12:14:35.498Z,102030.63
2023-05-08T12:17:38.351Z,102035.06
2023-05-08T12:20:40.705Z,102029.47
2023-05-08T12:23:43.322Z,102030.44
2023-05-08T12:26:47.056Z,102019.97
2023-05-08T12:29:49.435Z,102015.84
2023-05-08T12:32:51.887Z,102019.50
2023-05-08T12:35:58.931Z,102023.47
2023-05-08T12:39:15.161Z,102023.25
2023-05-08T12:42:17.586Z,102013.69
2023-05-08T12:45:26.057Z,102023.19
2023-05-08T12:48:28.984Z,102015.13
2023-05-08T12:51:31.661Z,102016.31
2023-05-08T12:54:38.888Z,102010.09
2023-05-08T12:57:41.398Z,101999.97
2023-05-08T13:00:48.746Z,102000.81
2023-05-08T13:04:01.662Z,102000.06
2023-05-08T13:07:05.717Z,102001.16
2023-05-08T13:10:09.373Z,101988.72
2023-05-08T13:13:11.871Z,101987.09
2023-05-08T13:16:14.305Z,101992.84
2023-05-08T13:19:17.032Z,101982.88
2023-05-08T13:22:23.180Z,101988.22
2023-05-08T13:25:25.604Z,101993.00
2023-05-08T13:28:27.951Z,101989.47
2023-05-08T13:31:30.427Z,101977.56
2023-05-08T13:34:32.830Z,101976.59
2023-05-08T13:37:35.163Z,101963.09
2023-05-08T13:40:37.635Z,101978.31
2023-05-08T13:43:40.150Z,101960.44
2023-05-08T13:46:42.585Z,101955.53
2023-05-08T13:49:47.233Z,101958.00
2023-05-08T13:52:51.078Z,101968.19
2023-05-08T13:55:55.483Z,101963.34
2023-05-08T13:58:57.878Z,101959.59
2023-05-08T14:02:00.998Z,101958.69
2023-05-08T14:05:04.701Z,101958.59
2023-05-08T14:08:07.034Z,101953.34
2023-05-08T14:11:09.715Z,101952.31
2023-05-08T14:14:12.149Z,101953.56
2023-05-08T14:17:14.494Z,101946.06
2023-05-08T14:20:16.835Z,101948.44
2023-05-08T14:23:19.210Z,101947.28
2023-05-08T14:26:21.805Z,101950.69
2023-05-08T14:29:24.177Z,101945.03
2023-05-08T14:32:26.801Z,101947.63
2023-05-08T14:35:29.173Z,101944.28
2023-05-08T14:38:31.777Z,101945.13
2023-05-08T14:41:34.262Z,101942.34
2023-05-08T14:44:36.689Z,101937.88
2023-05-08T14:47:39.747Z,101937.88
2023-05-08T14:50:42.675Z,101940.91
2023-05-08T14:53:45.161Z,101938.50
2023-05-08T14:56:47.894Z,101937.19
2023-05-08T14:59:54.964Z,101928.78
2023-05-08T15:02:57.873Z,101935.09
2023-05-08T15:06:00.531Z,101935.41
2023-05-08T15:09:02.931Z,101915.69
2023-05-08T15:12:05.730Z,101927.78
2023-05-08T15:15:08.490Z,101923.00
2023-05-08T15:18:11.144Z,101916.16
2023-05-08T15:21:13.535Z,101921.81
2023-05-08T15:24:15.933Z,101915.16
2023-05-08T15:27:18.815Z,101919.34
2023-05-08T15:30:21.319Z,101915.78
2023-05-08T15:33:23.780Z,101901.16
2023-05-08T15:36:28.221Z,101905.50
2023-05-08T15:39:30.774Z,101912.66
2023-05-08T15:42:33.177Z,101906.34
2023-05-08T15:45:35.751Z,101903.38
2023-05-08T15:48:38.239Z,101907.44
2023-05-08T15:51:40.844Z,101893.66
2023-05-08T15:54:43.184Z,101899.13
2023-05-08T15:57:45.713Z,101902.25
2023-05-08T16:00:48.178Z,101888.75
2023-05-08T16:03:50.620Z,101899.38
2023-05-08T16:06:52.982Z,101889.09
2023-05-08T16:09:55.376Z,101885.47
2023-05-08T16:12:57.831Z,101888.22
2023-05-08T16:16:06.365Z,101889.81
2023-05-08T16:19:08.957Z,101888.19
2023-05-08T16:22:11.371Z,101868.91
2023-05-08T16:25:14.021Z,101892.63
2023-05-08T16:28:16.679Z,101882.78
2023-05-08T16:31:19.020Z,101879.09
2023-05-08T16:34:21.420Z,101886.94
2023-05-08T16:37:23.822Z,101884.47
2023-05-08T16:40:26.583Z,101889.88
2023-05-08T16:43:29.052Z,101889.78
2023-05-08T16:46:31.558Z,101890.69
2023-05-08T16:49:33.964Z,101898.16
2023-05-08T16:52:36.296Z,101896.94
2023-05-08T16:55:38.721Z,101894.69
2023-05-08T16:58:43.254Z,101899.56
2023-05-08T17:01:45.656Z,101898.41
2023-05-08T17:04:48.751Z,101890.97
2023-05-08T17:07:51.196Z,101882.22
2023-05-08T17:10:54.273Z,101893.75
2023-05-08T17:13:56.842Z,101885.72
2023-05-08T17:16:59.337Z,101890.06
2023-05-08T17:20:01.790Z,101889.31
2023-05-08T17:23:04.069Z,101882.00
2023-05-08T17:26:06.913Z,101889.22
2023-05-08T17:29:09.356Z,101886.09
2023-05-08T17:32:11.863Z,101885.75
2023-05-08T17:35:14.163Z,101892.53
2023-05-08T17:38:16.552Z,101889.41
2023-05-08T17:41:19.062Z,101885.63
2023-05-08T17:44:21.412Z,101889.50
2023-05-08T17:47:23.874Z,101884.00
2023-05-08T17:50:26.488Z,101887.50
2023-05-08T17:53:30.769Z,101882.25
2023-05-08T17:56:33.060Z,101904.13
2023-05-08T17:59:35.456Z,101887.59
2023-05-08T18:02:37.948Z,101903.94
2023-05-08T18:05:40.315Z,101905.44
2023-05-08T18:08:42.817Z,101904.44
2023-05-08T18:11:45.178Z,101908.16
2023-05-08T18:14:48.060Z,101896.16
2023-05-08T18:17:51.766Z,101920.66
2023-05-08T18:20:54.121Z,101921.31
2023-05-08T18:23:56.425Z,101925.47
2023-05-08T18:26:58.735Z,101923.97
2023-05-08T18:30:01.119Z,101929.22
2023-05-08T18:33:03.585Z,101928.84
2023-05-08T18:36:07.542Z,101933.84
2023-05-08T18:39:12.745Z,101936.97
2023-05-08T18:42:15.511Z,101937.00
2023-05-08T18:45:18.005Z,101945.28
2023-05-08T18:48:20.481Z,101941.47
2023-05-08T18:51:22.850Z,101939.88
2023-05-08T18:54:27.053Z,101933.91
2023-05-08T18:57:29.463Z,101936.22
2023-05-08T19:00:31.865Z,101941.34
2023-05-08T19:03:34.540Z,101941.47
2023-05-08T19:06:36.897Z,101953.63
2023-05-08T19:09:40.066Z,101959.09
2023-05-08T19:12:45.854Z,101954.50
2023-05-08T19:15:48.356Z,101955.00
2023-05-08T19:18:51.260Z,101960.34
2023-05-08T19:21:53.625Z,101956.56
2023-05-08T19:24:55.943Z,101967.00
2023-05-08T19:27:58.801Z,101959.91
2023-05-08T19:31:02.214Z,101957.88
2023-05-08T19:34:04.860Z,101957.09
2023-05-08T19:37:10.719Z,101950.19
2023-05-08T19:40:13.960Z,101954.94
2023-05-08T19:43:16.554Z,101962.50
2023-05-08T19:46:20.745Z,101957.09
2023-05-08T19:49:26.320Z,101946.50
2023-05-08T19:52:29.820Z,101954.22
2023-05-08T19:55:32.876Z,101949.03
2023-05-08T19:58:37.422Z,101953.97
2023-05-08T20:01:43.835Z,101951.13
2023-05-08T20:05:14.563Z,101949.25
2023-05-08T20:08:11.027Z,101945.81
2023-05-08T20:11:14.454Z,101946.28
2023-05-08T20:14:16.826Z,101942.84
2023-05-08T20:17:21.010Z,101947.94
2023-05-08T20:20:27.300Z,101940.38
2023-05-08T20:23:30.766Z,101933.81
2023-05-08T20:26:34.870Z,101941.63
2023-05-08T20:29:37.482Z,101931.81
2023-05-08T20:32:39.932Z,101938.22
2023-05-08T20:35:42.329Z,101935.31
2023-05-08T20:38:44.788Z,101943.97
2023-05-08T20:41:47.069Z,101940.63
2023-05-08T20:44:49.388Z,101930.69
2023-05-08T20:47:51.873Z,101942.13
2023-05-08T20:50:55.068Z,101934.09
2023-05-08T20:53:58.215Z,101932.78
2023-05-08T20:57:02.135Z,101938.34
2023-05-08T21:00:06.596Z,101936.47
2023-05-08T21:03:11.362Z,101938.53
2023-05-08T21:06:16.110Z,101939.31
2023-05-08T21:09:19.605Z,101937.22
2023-05-08T21:12:24.453Z,101927.16
2023-05-08T21:15:26.882Z,101935.84
2023-05-08T21:18:31.781Z,101943.50
2023-05-08T21:21:34.455Z,101942.41
2023-05-08T21:24:37.835Z,101950.25
2023-05-08T21:27:40.273Z,101937.56
2023-05-08T21:30:46.238Z,101930.69
2023-05-08T21:33:49.078Z,101940.53
2023-05-08T21:36:52.943Z,101938.94
2023-05-08T21:39:55.733Z,101939.38
2023-05-08T21:42:58.211Z,101943.41
2023-05-08T21:46:00.853Z,101935.66
2023-05-08T21:49:04.734Z,101934.22
2023-05-08T21:52:07.112Z,101938.78
2023-05-08T21:55:09.904Z,101945.03
2023-05-08T21:58:12.324Z,101934.03
2023-05-08T22:01:14.797Z,101935.41
2023-05-08T22:04:17.284Z,101933.22
2023-05-08T22:07:21.207Z,101941.16
2023-05-08T22:10:25.581Z,101943.66
2023-05-08T22:13:28.049Z,101941.88
2023-05-08T22:16:30.619Z,101947.19
2023-05-08T22:19:33.074Z,101947.66
2023-05-08T22:22:35.465Z,101944.97
2023-05-08T22:25:37.791Z,101941.44
2023-05-08T22:28:40.187Z,101934.38
2023-05-08T22:31:42.923Z,101935.53
2023-05-08T22:34:46.572Z,101939.03
2023-05-08T22:37:48.973Z,101943.41
2023-05-08T22:40:52.648Z,101944.22
2023-05-08T22:43:55.000Z,101939.59
2023-05-08T22:46:57.477Z,101941.94
2023-05-08T22:49:59.903Z,101942.16
2023-05-08T22:53:04.136Z,101941.75
2023-05-08T22:56:06.474Z,101941.34
2023-05-08T22:59:08.928Z,101933.22
2023-05-08T23:02:11.298Z,101936.97
2023-05-08T23:05:14.739Z,101946.63
2023-05-08T23:08:17.445Z,101942.22
2023-05-08T23:11:19.862Z,101937.44
2023-05-08T23:14:22.223Z,101934.97
2023-05-08T23:17:24.706Z,101929.78
2023-05-08T23:20:27.152Z,101923.78
2023-05-08T23:23:29.536Z,101941.28
2023-05-08T23:26:31.935Z,101935.91
2023-05-08T23:29:34.347Z,101926.34
2023-05-08T23:32:36.820Z,101926.16
2023-05-08T23:35:39.193Z,101936.16
2023-05-08T23:38:41.892Z,101934.47
2023-05-08T23:41:44.235Z,101922.41
2023-05-08T23:44:46.648Z,101942.00
2023-05-08T23:47:49.587Z,101932.81
2023-05-08T23:50:52.126Z,101936.56
2023-05-08T23:53:54.548Z,101937.00
2023-05-08T23:56:56.935Z,101939.47
2023-05-08T23:59:59.212Z,101944.06
